Shoreway — 5BLH2 — position and weather

sailwx.info

Track history (hours):
 
Tides and Currents Weather Stations Pressure Air Temp Water Temp Dewpoint Dewpoint Depression Visibility Wind Speed Wind Dir Waves Ship Positions

Shoreway

Last reported at 2018-Feb-05 20:02 UTC. Time now 2018-Feb-20 06:11 UTC.
Position N 06°21' E 004°07'.
Warning: this ship's position is 14 days out of date.

Length 98 m; draft 4.4 m.

Type: Dredging. MMSI: 210921000.

Date/timePositionNaut miles runAvg speedWind from/ knotsBaromVisibWave heightAir tempDewpointWater temp
2018-Feb-05 20:02N 06°21' E 004°07'0 2.0
2018-Feb-05 19:58N 06°21' E 004°07'3 6.4
2018-Feb-05 19:30N 06°24' E 004°06'0 0.1
2018-Feb-05 16:00N 06°24' E 004°06'2 0.1
2018-Feb-04 19:12N 06°22' E 004°07'1 2.1
2018-Feb-04 18:35N 06°21' E 004°07'1 0.0
2018-Feb-03 23:44N 06°22' E 004°07'0 2.0
2018-Feb-03 23:31N 06°22' E 004°07'1 1.4
2018-Feb-03 23:00N 06°21' E 004°07'4 7.1
2018-Feb-03 22:30N 06°24' E 004°06'3 1.2
2018-Feb-03 20:12N 06°22' E 004°06'3 9.3
2018-Feb-03 19:54N 06°24' E 004°06'3 1.8
2018-Feb-03 18:24N 06°22' E 004°06'1 2.0
2018-Feb-03 18:01N 06°21' E 004°06'1 1.4
2018-Feb-03 17:29N 06°21' E 004°07'3 7.2
2018-Feb-03 17:01N 06°24' E 004°06'0 0.4
2018-Feb-03 16:00N 06°24' E 004°06'3 5.7
2018-Feb-03 15:31N 06°21' E 004°07'1 2.1
2018-Feb-03 14:59N 06°21' E 004°06'3 6.3
2018-Feb-03 14:29N 06°24' E 004°06'0 0.2
2018-Feb-03 13:59N 06°24' E 004°06'2 0.1
2018-Feb-02 20:16N 06°23' E 004°07'0 0.0
2018-Feb-02 19:59N 06°23' E 004°07'0 0.0
2018-Feb-02 17:43N 06°23' E 004°07'0 0.0
2018-Feb-02 17:29N 06°23' E 004°07'0 0.0
2018-Feb-02 17:00N 06°23' E 004°07'0 0.0
2018-Feb-02 16:30N 06°23' E 004°07'2 0.1
2018-Feb-01 19:31N 06°24' E 004°06'0 0.0
2018-Feb-01 19:01N 06°24' E 004°06'1 2.9
2018-Feb-01 18:31N 06°23' E 004°06'1 1.8
2018-Feb-01 18:00N 06°22' E 004°07'1 1.9
2018-Feb-01 17:31N 06°22' E 004°06'2 4.1
2018-Feb-01 17:00N 06°24' E 004°06'0 0.1
2018-Feb-01 16:31N 06°24' E 004°06'0 0.0
2018-Feb-01 16:00N 06°24' E 004°06'0 0.3
2018-Feb-01 15:31N 06°24' E 004°06'0 0.3
2018-Feb-01 15:00N 06°24' E 004°06'0 0.1
2018-Feb-01 11:32N 06°24' E 004°06'0 0.0
2018-Feb-01 11:00N 06°24' E 004°06'3 0.4
2018-Feb-01 04:22N 06°22' E 004°07'3 3.3
2018-Feb-01 03:31N 06°24' E 004°06'3 1.6
2018-Feb-01 01:46N 06°22' E 004°07'0 0.8
2018-Feb-01 01:30N 06°22' E 004°07'3 2.0
2018-Feb-01 00:06N 06°24' E 004°06'0 0.1
2018-Jan-31 23:54N 06°24' E 004°06'0 0.0
2018-Jan-31 19:08N 06°24' E 004°06'0 0.0
2018-Jan-31 18:56N 06°24' E 004°06'0 0.0
2018-Jan-29 19:27N 06°24' E 004°06'0 0.2
2018-Jan-29 19:00N 06°24' E 004°06'0 0.4
2018-Jan-29 18:29N 06°24' E 004°06'3 5.5
2018-Jan-29 17:52N 06°21' E 004°07'0 0.9
2018-Jan-29 17:31N 06°21' E 004°06'3 0.2
2018-Jan-28 21:41N 06°24' E 004°06'0 0.1
2018-Jan-28 21:31N 06°24' E 004°06'3 5.0
2018-Jan-28 21:00N 06°22' E 004°06'1 1.4
2018-Jan-28 20:30N 06°21' E 004°06'3 4.5
2018-Jan-28 19:53N 06°24' E 004°06'0 1.3
2018-Jan-28 19:30N 06°24' E 004°06'0 0.1
2018-Jan-28 18:59N 06°24' E 004°06'3 2.3
2018-Jan-28 17:38N 06°21' E 004°07'0 2.0
2018-Jan-28 17:31N 06°22' E 004°07'3 5.7
2018-Jan-28 17:00N 06°24' E 004°06'0 0.0
2018-Jan-28 16:31N 06°24' E 004°06'0 0.0
2018-Jan-28 00:28N 06°24' E 004°06'3 5.8
2018-Jan-28 00:00N 06°22' E 004°07'1 2.0
2018-Jan-27 23:28N 06°21' E 004°07'3 5.0
2018-Jan-27 22:52N 06°24' E 004°06'2 0.2
2018-Jan-27 10:35N 06°22' E 004°07'1 2.0
2018-Jan-27 10:13N 06°21' E 004°07'0 2.1
2018-Jan-27 10:00N 06°21' E 004°07'3 5.2
2018-Jan-27 09:28N 06°24' E 004°06'3 1.7
2018-Jan-27 07:50N 06°21' E 004°07'1 1.7
2018-Jan-27 07:28N 06°21' E 004°07'3 5.7
2018-Jan-27 06:58N 06°24' E 004°06'1 1.7
2018-Jan-27 06:30N 06°24' E 004°06'1 1.6
2018-Jan-27 06:00N 06°24' E 004°06'3 5.4
2018-Jan-27 05:30N 06°21' E 004°07'3 0.4
2018-Jan-26 21:30N 06°24' E 004°06'0 0.1
2018-Jan-26 21:00N 06°24' E 004°06'2 3.1
2018-Jan-26 20:30N 06°23' E 004°06'  
Track history (hours):
 
Tides and Currents Weather Stations Pressure Air Temp Water Temp Dewpoint Dewpoint Depression Visibility Wind Speed Wind Dir Waves Ship Positions

Shoreway

Last reported at 2018-Feb-05 20:02 UTC. Time now 2018-Feb-20 06:11 UTC.
Position N 06°21' E 004°07'.
Warning: this ship's position is 14 days out of date.

Length 98 m; draft 4.4 m.

Type: Dredging. MMSI: 210921000.

Date/timePositionNaut miles runAvg speedWind from/ knotsBaromVisibWave heightAir tempDewpointWater temp
2018-Feb-05 20:02N 06°21' E 004°07'0 2.0
2018-Feb-05 19:58N 06°21' E 004°07'3 6.4
2018-Feb-05 19:30N 06°24' E 004°06'0 0.1
2018-Feb-05 16:00N 06°24' E 004°06'2 0.1
2018-Feb-04 19:12N 06°22' E 004°07'1 2.1
2018-Feb-04 18:35N 06°21' E 004°07'1 0.0
2018-Feb-03 23:44N 06°22' E 004°07'0 2.0
2018-Feb-03 23:31N 06°22' E 004°07'1 1.4
2018-Feb-03 23:00N 06°21' E 004°07'4 7.1
2018-Feb-03 22:30N 06°24' E 004°06'3 1.2
2018-Feb-03 20:12N 06°22' E 004°06'3 9.3
2018-Feb-03 19:54N 06°24' E 004°06'3 1.8
2018-Feb-03 18:24N 06°22' E 004°06'1 2.0
2018-Feb-03 18:01N 06°21' E 004°06'1 1.4
2018-Feb-03 17:29N 06°21' E 004°07'3 7.2
2018-Feb-03 17:01N 06°24' E 004°06'0 0.4
2018-Feb-03 16:00N 06°24' E 004°06'3 5.7
2018-Feb-03 15:31N 06°21' E 004°07'1 2.1
2018-Feb-03 14:59N 06°21' E 004°06'3 6.3
2018-Feb-03 14:29N 06°24' E 004°06'0 0.2
2018-Feb-03 13:59N 06°24' E 004°06'2 0.1
2018-Feb-02 20:16N 06°23' E 004°07'0 0.0
2018-Feb-02 19:59N 06°23' E 004°07'0 0.0
2018-Feb-02 17:43N 06°23' E 004°07'0 0.0
2018-Feb-02 17:29N 06°23' E 004°07'0 0.0
2018-Feb-02 17:00N 06°23' E 004°07'0 0.0
2018-Feb-02 16:30N 06°23' E 004°07'2 0.1
2018-Feb-01 19:31N 06°24' E 004°06'0 0.0
2018-Feb-01 19:01N 06°24' E 004°06'1 2.9
2018-Feb-01 18:31N 06°23' E 004°06'1 1.8
2018-Feb-01 18:00N 06°22' E 004°07'1 1.9
2018-Feb-01 17:31N 06°22' E 004°06'2 4.1
2018-Feb-01 17:00N 06°24' E 004°06'0 0.1
2018-Feb-01 16:31N 06°24' E 004°06'0 0.0
2018-Feb-01 16:00N 06°24' E 004°06'0 0.3
2018-Feb-01 15:31N 06°24' E 004°06'0 0.3
2018-Feb-01 15:00N 06°24' E 004°06'0 0.1
2018-Feb-01 11:32N 06°24' E 004°06'0 0.0
2018-Feb-01 11:00N 06°24' E 004°06'3 0.4
2018-Feb-01 04:22N 06°22' E 004°07'3 3.3
2018-Feb-01 03:31N 06°24' E 004°06'3 1.6
2018-Feb-01 01:46N 06°22' E 004°07'0 0.8
2018-Feb-01 01:30N 06°22' E 004°07'3 2.0
2018-Feb-01 00:06N 06°24' E 004°06'0 0.1
2018-Jan-31 23:54N 06°24' E 004°06'0 0.0
2018-Jan-31 19:08N 06°24' E 004°06'0 0.0
2018-Jan-31 18:56N 06°24' E 004°06'0 0.0
2018-Jan-29 19:27N 06°24' E 004°06'0 0.2
2018-Jan-29 19:00N 06°24' E 004°06'0 0.4
2018-Jan-29 18:29N 06°24' E 004°06'3 5.5
2018-Jan-29 17:52N 06°21' E 004°07'0 0.9
2018-Jan-29 17:31N 06°21' E 004°06'3 0.2
2018-Jan-28 21:41N 06°24' E 004°06'0 0.1
2018-Jan-28 21:31N 06°24' E 004°06'3 5.0
2018-Jan-28 21:00N 06°22' E 004°06'1 1.4
2018-Jan-28 20:30N 06°21' E 004°06'3 4.5
2018-Jan-28 19:53N 06°24' E 004°06'0 1.3
2018-Jan-28 19:30N 06°24' E 004°06'0 0.1
2018-Jan-28 18:59N 06°24' E 004°06'3 2.3
2018-Jan-28 17:38N 06°21' E 004°07'0 2.0
2018-Jan-28 17:31N 06°22' E 004°07'3 5.7
2018-Jan-28 17:00N 06°24' E 004°06'0 0.0
2018-Jan-28 16:31N 06°24' E 004°06'0 0.0
2018-Jan-28 00:28N 06°24' E 004°06'3 5.8
2018-Jan-28 00:00N 06°22' E 004°07'1 2.0
2018-Jan-27 23:28N 06°21' E 004°07'3 5.0
2018-Jan-27 22:52N 06°24' E 004°06'2 0.2
2018-Jan-27 10:35N 06°22' E 004°07'1 2.0
2018-Jan-27 10:13N 06°21' E 004°07'0 2.1
2018-Jan-27 10:00N 06°21' E 004°07'3 5.2
2018-Jan-27 09:28N 06°24' E 004°06'3 1.7
2018-Jan-27 07:50N 06°21' E 004°07'1 1.7
2018-Jan-27 07:28N 06°21' E 004°07'3 5.7
2018-Jan-27 06:58N 06°24' E 004°06'1 1.7
2018-Jan-27 06:30N 06°24' E 004°06'1 1.6
2018-Jan-27 06:00N 06°24' E 004°06'3 5.4
2018-Jan-27 05:30N 06°21' E 004°07'3 0.4
2018-Jan-26 21:30N 06°24' E 004°06'0 0.1
2018-Jan-26 21:00N 06°24' E 004°06'2 3.1
2018-Jan-26 20:30N 06°23' E 004°06'  

Dump ship's entire track history